Time;durP1;ratioP1;P1;durP2;ratioP2;P2;SDS_P1;SDS_P2;PMS_P1;PMS_P2;Temp;Humidity;BMP_temperature;BMP_pressure;BME280_temperature;BME280_humidity;BME280_pressure;Samples;Min_cycle;Max_cycle;Signal;HPM_P1;HPM_P2
2022/04/02 00:01:41;;;;;;;10.30;6.75;;;;;;;;;;5054837;28;20032;-53
2022/04/02 00:04:08;;;;;;;9.25;7.30;;;;;;;;;;5054215;28;20029;-49
2022/04/02 00:06:35;;;;;;;11.25;7.72;;;;;;;;;;5055119;28;20413;-51
2022/04/02 00:09:01;;;;;;;13.00;7.60;;;;;;;;;;5055081;28;20100;-47
2022/04/02 00:11:27;;;;;;;14.25;8.18;;;;;;;;;;5054338;28;20025;-53
2022/04/02 00:13:54;;;;;;;11.35;7.97;;;;;;;;;;5054631;28;20424;-49
2022/04/02 00:16:20;;;;;;;14.30;8.25;;;;;;;;;;5054780;28;20136;-49
2022/04/02 00:18:49;;;;;;;7.57;5.60;;;;;;;;;;5054003;28;20105;-50
2022/04/02 00:21:15;;;;;;;8.38;5.50;;;;;;;;;;5054556;28;20028;-50
2022/04/02 00:23:44;;;;;;;8.45;5.70;;;;;;;;;;5054375;28;20032;-50
2022/04/02 00:26:12;;;;;;;8.32;5.38;;;;;;;;;;5053923;28;20021;-53
2022/04/02 00:28:39;;;;;;;10.75;7.05;;;;;;;;;;5054548;28;20369;-47
2022/04/02 00:31:07;;;;;;;12.85;8.15;;;;;;;;;;5054072;28;20025;-49
2022/04/02 00:33:34;;;;;;;11.25;7.13;;;;;;;;;;5053913;28;20041;-52
2022/04/02 00:36:00;;;;;;;9.52;7.13;;;;;;;;;;5054237;28;20032;-51
2022/04/02 00:38:26;;;;;;;10.63;7.50;;;;;;;;;;5054033;28;20430;-49
2022/04/02 00:40:52;;;;;;;10.15;6.80;;;;;;;;;;5053305;28;20087;-53
2022/04/02 00:43:22;;;;;;;9.25;5.97;;;;;;;;;;5054184;28;20109;-48
2022/04/02 00:45:49;;;;;;;7.47;4.95;;;;;;;;;;5053720;28;20036;-54
2022/04/02 00:48:15;;;;;;;6.70;4.30;;;;;;;;;;5053539;28;20083;-52
2022/04/02 00:50:41;;;;;;;5.57;3.63;;;;;;;;;;5053762;28;20079;-55
2022/04/02 00:53:08;;;;;;;5.25;3.65;;;;;;;;;;5053368;28;20051;-49
2022/04/02 00:55:34;;;;;;;5.45;3.63;;;;;;;;;;5053912;28;20108;-48
2022/04/02 00:58:01;;;;;;;5.88;4.28;;;;;;;;;;5054068;28;20524;-48
2022/04/02 01:00:27;;;;;;;5.97;4.18;;;;;;;;;;5053242;28;20025;-54
2022/04/02 01:02:53;;;;;;;4.35;3.90;;;;;;;;;;5053700;28;20035;-49
2022/04/02 01:05:20;;;;;;;9.63;4.47;;;;;;;;;;5053982;28;20139;-55
2022/04/02 01:07:47;;;;;;;6.43;5.03;;;;;;;;;;5053293;28;20025;-49
2022/04/02 01:10:13;;;;;;;10.60;6.00;;;;;;;;;;5053281;28;20042;-52
2022/04/02 01:12:40;;;;;;;10.13;6.18;;;;;;;;;;5053734;28;20033;-53
2022/04/02 01:15:06;;;;;;;9.20;6.40;;;;;;;;;;5052534;28;20028;-49
2022/04/02 01:17:32;;;;;;;9.90;7.18;;;;;;;;;;5053431;28;20401;-49
2022/04/02 01:19:58;;;;;;;9.02;5.88;;;;;;;;;;5053558;28;20071;-49
2022/04/02 01:22:25;;;;;;;13.38;6.78;;;;;;;;;;5052896;28;20539;-50
2022/04/02 01:24:51;;;;;;;9.68;7.05;;;;;;;;;;5053205;28;20083;-52
2022/04/02 01:27:17;;;;;;;12.77;7.43;;;;;;;;;;5053082;28;20021;-51
2022/04/02 01:29:44;;;;;;;10.07;6.82;;;;;;;;;;5053104;28;20029;-53
2022/04/02 01:32:10;;;;;;;9.88;6.72;;;;;;;;;;5053615;28;20535;-48
2022/04/02 01:34:36;;;;;;;9.75;6.35;;;;;;;;;;5053065;28;20458;-50
2022/04/02 01:37:02;;;;;;;11.85;7.63;;;;;;;;;;5053115;28;20025;-47
2022/04/02 01:39:29;;;;;;;13.13;7.53;;;;;;;;;;5053345;28;20425;-49
2022/04/02 01:41:55;;;;;;;11.23;7.55;;;;;;;;;;5053144;28;20021;-49
2022/04/02 01:44:21;;;;;;;11.30;7.35;;;;;;;;;;5052971;28;20104;-53
2022/04/02 01:46:47;;;;;;;9.23;6.13;;;;;;;;;;5053275;28;20104;-47
2022/04/02 01:49:13;;;;;;;8.95;5.32;;;;;;;;;;5052602;28;20028;-48
2022/04/02 01:51:39;;;;;;;7.78;5.32;;;;;;;;;;5053308;28;20108;-51
2022/04/02 01:54:06;;;;;;;7.82;5.15;;;;;;;;;;5052906;28;20385;-48
2022/04/02 01:56:32;;;;;;;9.57;5.15;;;;;;;;;;5052956;28;20025;-47
2022/04/02 01:58:58;;;;;;;7.15;5.25;;;;;;;;;;5052837;28;20021;-48
2022/04/02 02:01:25;;;;;;;10.35;5.90;;;;;;;;;;5053030;28;20516;-50
2022/04/02 02:03:51;;;;;;;8.63;6.13;;;;;;;;;;5052212;28;20116;-50
2022/04/02 02:06:17;;;;;;;8.05;5.85;;;;;;;;;;5052726;28;20096;-50
2022/04/02 02:08:43;;;;;;;8.70;6.40;;;;;;;;;;5053081;28;20101;-53
2022/04/02 02:11:09;;;;;;;8.10;5.82;;;;;;;;;;5052791;28;20108;-48
2022/04/02 02:13:35;;;;;;;10.30;5.93;;;;;;;;;;5053156;28;20545;-47
2022/04/02 02:16:01;;;;;;;7.90;4.95;;;;;;;;;;5052945;28;20045;-51
2022/04/02 02:18:28;;;;;;;7.60;5.53;;;;;;;;;;5052576;28;20021;-50
2022/04/02 02:20:54;;;;;;;8.20;5.72;;;;;;;;;;5053473;28;20104;-47
2022/04/02 02:23:20;;;;;;;11.52;5.47;;;;;;;;;;5057049;28;20028;-51
2022/04/02 02:25:46;;;;;;;7.10;4.57;;;;;;;;;;5056448;28;20101;-50
2022/04/02 02:28:14;;;;;;;7.75;4.68;;;;;;;;;;5056484;28;20108;-52
2022/04/02 02:30:41;;;;;;;6.47;3.95;;;;;;;;;;5056500;28;20021;-53
2022/04/02 02:35:52;;;;;;;6.10;4.07;;;;;;;;;;5056644;28;20082;-52
2022/04/02 02:38:20;;;;;;;5.30;3.90;;;;;;;;;;5056496;28;20025;-51
2022/04/02 02:40:47;;;;;;;6.57;4.07;;;;;;;;;;5056650;28;20025;-53
2022/04/02 02:43:13;;;;;;;6.15;4.25;;;;;;;;;;5056190;28;20112;-50
2022/04/02 02:45:40;;;;;;;6.15;3.90;;;;;;;;;;5056115;28;20025;-53
2022/04/02 02:48:06;;;;;;;5.03;3.47;;;;;;;;;;5056318;28;20117;-52
2022/04/02 02:50:33;;;;;;;5.13;3.67;;;;;;;;;;5056275;28;20458;-52
2022/04/02 02:52:59;;;;;;;6.38;3.30;;;;;;;;;;5056102;28;20160;-53
2022/04/02 02:55:26;;;;;;;4.28;3.47;;;;;;;;;;5056101;28;20057;-53
2022/04/02 02:57:52;;;;;;;6.13;3.40;;;;;;;;;;5056169;28;20040;-47
2022/04/02 03:00:21;;;;;;;5.88;3.97;;;;;;;;;;5055847;28;20159;-54
2022/04/02 03:02:47;;;;;;;9.13;4.05;;;;;;;;;;5056300;28;20108;-49
2022/04/02 03:05:14;;;;;;;6.05;3.80;;;;;;;;;;5056092;28;20044;-52
2022/04/02 03:07:48;;;;;;;4.95;3.28;;;;;;;;;;5055418;28;20428;-52
2022/04/02 03:10:18;;;;;;;4.93;3.20;;;;;;;;;;5056277;28;20426;-55
2022/04/02 03:12:45;;;;;;;5.95;4.00;;;;;;;;;;5055259;28;20025;-54
2022/04/02 03:15:11;;;;;;;6.40;3.55;;;;;;;;;;5055687;28;20045;-51
2022/04/02 03:17:38;;;;;;;6.75;3.80;;;;;;;;;;5055646;28;20049;-47
2022/04/02 03:20:05;;;;;;;6.88;3.08;;;;;;;;;;5055452;28;20086;-50
2022/04/02 03:22:35;;;;;;;6.05;3.65;;;;;;;;;;5055501;28;20466;-48
2022/04/02 03:25:02;;;;;;;13.98;6.85;;;;;;;;;;5055592;28;20035;-52
2022/04/02 03:27:28;;;;;;;14.80;7.93;;;;;;;;;;5055264;28;20025;-53
2022/04/02 03:29:55;;;;;;;18.33;9.45;;;;;;;;;;5055637;28;20045;-54
2022/04/02 03:32:21;;;;;;;6.43;3.60;;;;;;;;;;5054919;28;20036;-46
2022/04/02 03:34:47;;;;;;;6.78;4.30;;;;;;;;;;5055089;28;20458;-50
2022/04/02 03:37:13;;;;;;;5.55;3.78;;;;;;;;;;5055242;28;20052;-53
2022/04/02 03:39:40;;;;;;;4.95;2.63;;;;;;;;;;5055173;28;20485;-54
2022/04/02 03:42:06;;;;;;;4.07;2.22;;;;;;;;;;5054947;28;20025;-47
2022/04/02 03:44:33;;;;;;;6.53;3.40;;;;;;;;;;5055367;28;20095;-47
2022/04/02 03:47:08;;;;;;;3.13;2.13;;;;;;;;;;5055022;28;20450;-48
2022/04/02 03:49:35;;;;;;;3.85;2.72;;;;;;;;;;5053819;28;20104;-46
2022/04/02 03:52:01;;;;;;;5.20;3.00;;;;;;;;;;5053619;28;20017;-53
2022/04/02 03:54:28;;;;;;;5.57;3.00;;;;;;;;;;5053882;28;20075;-49
2022/04/02 03:56:54;;;;;;;7.78;4.05;;;;;;;;;;5054524;28;20500;-48
2022/04/02 03:59:20;;;;;;;6.50;3.80;;;;;;;;;;5055068;28;20131;-50
2022/04/02 04:01:46;;;;;;;7.38;3.60;;;;;;;;;;5055060;28;20057;-50
2022/04/02 04:04:13;;;;;;;9.05;5.28;;;;;;;;;;5054960;28;20058;-50
2022/04/02 04:06:39;;;;;;;10.43;5.72;;;;;;;;;;5054633;28;20029;-50
2022/04/02 04:09:05;;;;;;;9.65;6.03;;;;;;;;;;5055029;28;20108;-47
2022/04/02 04:11:33;;;;;;;10.13;6.28;;;;;;;;;;5054600;28;20096;-50
2022/04/02 04:14:00;;;;;;;10.35;5.60;;;;;;;;;;5054723;28;20093;-48
2022/04/02 04:16:26;;;;;;;11.23;6.60;;;;;;;;;;5053812;28;20056;-48
2022/04/02 04:18:52;;;;;;;8.65;5.70;;;;;;;;;;5054889;28;20040;-52
2022/04/02 04:21:18;;;;;;;44.92;24.83;;;;;;;;;;5054657;28;20112;-52
2022/04/02 04:23:44;;;;;;;17.70;12.15;;;;;;;;;;5054331;28;20033;-46
2022/04/02 04:26:11;;;;;;;24.27;18.08;;;;;;;;;;5054573;28;20104;-47
2022/04/02 04:28:37;;;;;;;13.70;8.95;;;;;;;;;;5054291;28;20029;-51
2022/04/02 04:31:04;;;;;;;10.07;5.97;;;;;;;;;;5053690;28;20104;-54
2022/04/02 04:33:31;;;;;;;7.00;4.88;;;;;;;;;;5053663;28;20401;-51
2022/04/02 04:35:57;;;;;;;8.05;4.00;;;;;;;;;;5054218;28;20087;-48
2022/04/02 04:38:24;;;;;;;6.43;3.20;;;;;;;;;;5053859;28;20025;-55
2022/04/02 04:40:50;;;;;;;3.72;2.13;;;;;;;;;;5053833;28;20055;-55
2022/04/02 04:43:16;;;;;;;9.05;5.03;;;;;;;;;;5053463;28;20029;-52
2022/04/02 04:45:42;;;;;;;6.18;2.97;;;;;;;;;;5053400;28;20128;-50
2022/04/02 04:48:09;;;;;;;8.70;5.40;;;;;;;;;;5054340;28;20029;-51
2022/04/02 04:50:35;;;;;;;3.22;2.05;;;;;;;;;;5053650;28;20385;-52
2022/04/02 04:53:02;;;;;;;1.70;0.93;;;;;;;;;;5053866;28;20036;-52
2022/04/02 04:55:28;;;;;;;2.10;1.20;;;;;;;;;;5053843;28;20470;-50
2022/04/02 04:57:55;;;;;;;2.70;1.48;;;;;;;;;;5053311;28;20100;-50
2022/04/02 05:00:23;;;;;;;1.60;1.17;;;;;;;;;;5053597;28;20443;-50
2022/04/02 05:02:49;;;;;;;2.85;2.38;;;;;;;;;;5053838;28;20470;-51
2022/04/02 05:05:15;;;;;;;4.35;2.97;;;;;;;;;;5053441;28;20124;-50
2022/04/02 05:07:42;;;;;;;4.43;2.25;;;;;;;;;;5053602;28;20112;-49
2022/04/02 05:10:09;;;;;;;3.58;2.28;;;;;;;;;;5053811;28;20047;-54
2022/04/02 05:12:38;;;;;;;1.35;1.13;;;;;;;;;;5052937;28;20547;-56
2022/04/02 05:15:05;;;;;;;1.63;1.20;;;;;;;;;;5053298;28;20021;-52
2022/04/02 05:17:34;;;;;;;2.25;0.73;;;;;;;;;;5053458;28;20021;-53
2022/04/02 05:20:00;;;;;;;2.35;0.93;;;;;;;;;;5053172;28;20119;-48
2022/04/02 05:22:27;;;;;;;4.43;1.50;;;;;;;;;;5053560;28;20032;-50
2022/04/02 05:24:53;;;;;;;2.38;1.17;;;;;;;;;;5053452;28;20501;-49
2022/04/02 05:27:19;;;;;;;2.38;1.35;;;;;;;;;;5053236;28;20468;-52
2022/04/02 05:29:46;;;;;;;1.90;1.10;;;;;;;;;;5053592;28;20163;-50
2022/04/02 05:32:12;;;;;;;1.55;0.80;;;;;;;;;;5052134;28;20100;-52
2022/04/02 05:34:39;;;;;;;2.58;1.38;;;;;;;;;;5052185;28;20108;-53
2022/04/02 05:37:06;;;;;;;2.30;1.13;;;;;;;;;;5053492;28;20028;-48
2022/04/02 05:39:32;;;;;;;2.25;1.20;;;;;;;;;;5053458;28;20044;-49
2022/04/02 05:41:59;;;;;;;2.67;1.13;;;;;;;;;;5052815;28;20484;-49
2022/04/02 05:44:25;;;;;;;1.65;0.93;;;;;;;;;;5053192;28;20033;-51
2022/04/02 05:46:51;;;;;;;5.00;3.30;;;;;;;;;;5053112;28;20025;-48
2022/04/02 05:49:18;;;;;;;2.45;1.60;;;;;;;;;;5053112;28;20108;-52
2022/04/02 05:51:44;;;;;;;6.05;1.38;;;;;;;;;;5053113;28;20029;-49
2022/04/02 05:54:10;;;;;;;1.50;0.80;;;;;;;;;;5052958;28;20029;-52
2022/04/02 05:56:37;;;;;;;0.80;0.50;;;;;;;;;;5057392;28;20128;-53
2022/04/02 05:59:07;;;;;;;2.05;0.88;;;;;;;;;;5057328;28;20025;-51
2022/04/02 06:01:34;;;;;;;4.22;0.73;;;;;;;;;;5057277;28;20424;-51
2022/04/02 06:04:01;;;;;;;2.17;0.70;;;;;;;;;;5056799;28;20029;-51
2022/04/02 06:06:27;;;;;;;1.33;0.70;;;;;;;;;;5057137;28;20028;-52
2022/04/02 06:08:53;;;;;;;1.10;0.70;;;;;;;;;;5056866;28;20024;-52
2022/04/02 06:11:20;;;;;;;1.55;0.90;;;;;;;;;;5056781;28;20492;-54
2022/04/02 06:13:46;;;;;;;2.33;0.90;;;;;;;;;;5057074;28;20347;-54
2022/04/02 06:16:12;;;;;;;2.65;1.05;;;;;;;;;;5056638;28;20132;-52
2022/04/02 06:18:39;;;;;;;3.60;0.98;;;;;;;;;;5056752;28;20110;-54
2022/04/02 06:21:05;;;;;;;3.47;1.50;;;;;;;;;;5056696;28;20028;-49
2022/04/02 06:23:32;;;;;;;1.83;0.90;;;;;;;;;;5056448;28;20048;-50
2022/04/02 06:25:59;;;;;;;2.17;0.70;;;;;;;;;;5056821;28;20067;-47
2022/04/02 06:28:25;;;;;;;2.72;1.50;;;;;;;;;;5056731;28;20052;-48
2022/04/02 06:30:51;;;;;;;4.07;1.50;;;;;;;;;;5056522;28;20049;-52
2022/04/02 06:33:17;;;;;;;4.40;2.00;;;;;;;;;;5056628;28;20028;-51
2022/04/02 06:35:43;;;;;;;3.00;1.38;;;;;;;;;;5056579;28;20112;-49
2022/04/02 06:38:10;;;;;;;4.43;1.30;;;;;;;;;;5056551;28;20029;-50
2022/04/02 06:40:36;;;;;;;3.28;0.75;;;;;;;;;;5056817;28;20108;-55
2022/04/02 06:43:02;;;;;;;1.92;1.10;;;;;;;;;;5056290;28;20381;-54
2022/04/02 06:45:28;;;;;;;4.68;1.80;;;;;;;;;;5056215;28;20506;-49
2022/04/02 06:47:55;;;;;;;3.83;2.03;;;;;;;;;;5056401;28;20115;-52
2022/04/02 06:50:21;;;;;;;4.28;1.67;;;;;;;;;;5056034;28;20067;-54
2022/04/02 06:52:47;;;;;;;5.22;1.95;;;;;;;;;;5056503;28;20478;-52
2022/04/02 06:55:15;;;;;;;4.15;1.70;;;;;;;;;;5056488;28;20039;-55
2022/04/02 06:57:42;;;;;;;3.17;1.98;;;;;;;;;;5055874;28;20025;-53
2022/04/02 07:00:09;;;;;;;2.80;1.92;;;;;;;;;;5056312;28;20032;-56
2022/04/02 07:02:35;;;;;;;3.47;1.35;;;;;;;;;;5056406;28;20025;-48
2022/04/02 07:05:01;;;;;;;2.67;1.25;;;;;;;;;;5055880;28;20100;-50
2022/04/02 07:07:27;;;;;;;1.48;1.17;;;;;;;;;;5055389;28;20029;-47
2022/04/02 07:09:53;;;;;;;3.03;1.38;;;;;;;;;;5055975;28;20553;-51
2022/04/02 07:12:20;;;;;;;2.25;1.10;;;;;;;;;;5055614;28;20064;-56
2022/04/02 07:14:46;;;;;;;1.48;1.10;;;;;;;;;;5055770;28;20033;-55
2022/04/02 07:17:13;;;;;;;2.78;1.33;;;;;;;;;;5055555;28;20127;-51
2022/04/02 07:19:40;;;;;;;4.43;1.70;;;;;;;;;;5055086;28;20378;-50
2022/04/02 07:22:10;;;;;;;1.60;0.90;;;;;;;;;;5055238;28;20166;-50
2022/04/02 07:24:40;;;;;;;1.83;0.85;;;;;;;;;;5055341;28;20020;-53
2022/04/02 07:27:07;;;;;;;6.22;1.50;;;;;;;;;;5055545;28;20382;-55
2022/04/02 07:29:33;;;;;;;7.55;1.85;;;;;;;;;;5055459;28;20040;-52
2022/04/02 07:32:00;;;;;;;1.88;1.00;;;;;;;;;;5054241;28;20198;-50
2022/04/02 07:34:26;;;;;;;1.83;0.93;;;;;;;;;;5042855;28;20414;-51
2022/04/02 07:36:52;;;;;;;2.00;0.70;;;;;;;;;;5044409;28;20030;-53
2022/04/02 07:39:25;;;;;;;2.33;0.77;;;;;;;;;;5044129;28;20369;-49
2022/04/02 07:42:15;;;;;;;1.67;0.80;;;;;;;;;;5042512;28;20013;-51
2022/04/02 07:44:58;;;;;;;1.88;0.82;;;;;;;;;;5034613;28;20501;-48
2022/04/02 07:47:25;;;;;;;1.55;1.00;;;;;;;;;;5034696;28;20462;-52
2022/04/02 07:49:54;;;;;;;1.77;0.80;;;;;;;;;;5034911;28;20071;-54
2022/04/02 07:52:21;;;;;;;3.88;3.17;;;;;;;;;;5033306;28;20056;-51
2022/04/02 07:54:50;;;;;;;6.70;3.45;;;;;;;;;;5042026;28;20064;-50
2022/04/02 07:57:16;;;;;;;44.38;25.30;;;;;;;;;;5040059;28;20521;-53
2022/04/02 07:59:44;;;;;;;61.75;37.05;;;;;;;;;;5042235;28;20454;-53
2022/04/02 08:05:00;;;;;;;4.38;3.20;;;;;;;;;;5054396;28;20044;-48
2022/04/02 08:07:35;;;;;;;1.95;1.00;;;;;;;;;;5053870;28;20470;-54
2022/04/02 08:10:05;;;;;;;3.85;2.35;;;;;;;;;;5054865;28;20025;-55
2022/04/02 08:12:33;;;;;;;1.65;1.20;;;;;;;;;;5054584;28;20067;-48
2022/04/02 08:14:59;;;;;;;1.67;0.90;;;;;;;;;;5054664;28;20123;-53
2022/04/02 08:17:27;;;;;;;1.88;1.13;;;;;;;;;;5046844;28;20049;-50
2022/04/02 08:19:53;;;;;;;3.85;2.35;;;;;;;;;;5034122;28;20104;-49
2022/04/02 08:22:20;;;;;;;2.38;1.55;;;;;;;;;;5037152;28;20037;-51
2022/04/02 08:24:46;;;;;;;1.85;1.40;;;;;;;;;;5046930;28;20506;-48
2022/04/02 08:27:12;;;;;;;2.15;1.45;;;;;;;;;;5053723;28;20077;-49
2022/04/02 08:29:50;;;;;;;3.40;1.52;;;;;;;;;;5054209;28;20032;-53
2022/04/02 08:32:28;;;;;;;3.72;1.48;;;;;;;;;;5053969;28;20055;-48
2022/04/02 08:35:01;;;;;;;1.30;0.80;;;;;;;;;;5045794;28;20037;-48
2022/04/02 08:37:45;;;;;;;1.27;0.70;;;;;;;;;;5045326;28;20044;-53
2022/04/02 08:40:37;;;;;;;3.30;0.73;;;;;;;;;;5034260;28;20103;-51
2022/04/02 08:43:18;;;;;;;2.05;1.42;;;;;;;;;;5033873;28;20034;-52
2022/04/02 08:45:58;;;;;;;1.40;1.13;;;;;;;;;;5034084;28;20026;-50
2022/04/02 08:48:26;;;;;;;5.65;1.48;;;;;;;;;;5033765;28;20080;-47
2022/04/02 08:51:13;;;;;;;2.75;1.27;;;;;;;;;;5033734;28;20022;-47
2022/04/02 08:53:49;;;;;;;3.03;1.45;;;;;;;;;;5033505;28;20052;-48
2022/04/02 08:56:22;;;;;;;1.40;0.70;;;;;;;;;;5033672;28;20034;-45
2022/04/02 08:58:59;;;;;;;0.82;0.80;;;;;;;;;;5046617;28;20033;-53
2022/04/02 09:01:48;;;;;;;0.90;0.68;;;;;;;;;;5053556;28;20400;-49
2022/04/02 09:04:20;;;;;;;1.95;0.98;;;;;;;;;;5053414;28;20021;-64
2022/04/02 09:06:50;;;;;;;2.10;0.95;;;;;;;;;;5053409;28;20025;-45
2022/04/02 09:09:16;;;;;;;0.88;0.55;;;;;;;;;;5052010;28;20465;-49
2022/04/02 09:12:00;;;;;;;1.92;0.50;;;;;;;;;;5033493;28;20100;-48
2022/04/02 09:14:36;;;;;;;1.10;0.73;;;;;;;;;;5033598;28;20470;-50
2022/04/02 09:17:05;;;;;;;1.55;0.90;;;;;;;;;;5051203;28;20512;-47
2022/04/02 09:19:45;;;;;;;3.03;0.55;;;;;;;;;;5054152;28;20025;-43
2022/04/02 09:22:21;;;;;;;2.92;0.70;;;;;;;;;;5053733;28;20100;-47
2022/04/02 09:24:50;;;;;;;0.95;0.60;;;;;;;;;;5053342;28;20100;-52
2022/04/02 09:27:34;;;;;;;0.93;0.40;;;;;;;;;;5053448;28;20021;-46
2022/04/02 09:30:09;;;;;;;3.15;1.40;;;;;;;;;;5053268;28;20024;-48
2022/04/02 09:32:44;;;;;;;2.47;1.52;;;;;;;;;;5053202;28;20504;-45
2022/04/02 09:35:36;;;;;;;1.40;0.93;;;;;;;;;;5052800;28;20061;-51
2022/04/02 09:38:17;;;;;;;2.95;0.90;;;;;;;;;;5009884;28;20083;-49
2022/04/02 09:40:44;;;;;;;1.73;1.10;;;;;;;;;;5031557;28;20510;-46
2022/04/02 09:43:19;;;;;;;2.92;1.05;;;;;;;;;;5032679;28;20037;-47
2022/04/02 09:45:53;;;;;;;1.50;0.70;;;;;;;;;;5032928;28;20025;-48
2022/04/02 09:48:28;;;;;;;4.47;1.13;;;;;;;;;;5033205;28;20105;-47
2022/04/02 09:50:58;;;;;;;6.40;1.05;;;;;;;;;;5033296;28;20466;-47
2022/04/02 09:53:26;;;;;;;4.55;0.90;;;;;;;;;;5032940;28;20033;-51
2022/04/02 09:56:08;;;;;;;2.65;0.75;;;;;;;;;;5033216;28;20021;-50
2022/04/02 09:58:47;;;;;;;1.83;0.90;;;;;;;;;;5032813;28;20036;-51
2022/04/02 10:01:35;;;;;;;2.05;1.23;;;;;;;;;;5033522;28;20068;-49
2022/04/02 10:04:07;;;;;;;2.45;1.30;;;;;;;;;;5033184;28;20030;-49
2022/04/02 10:06:40;;;;;;;4.45;1.40;;;;;;;;;;5032705;28;20109;-49
2022/04/02 10:09:15;;;;;;;4.30;1.13;;;;;;;;;;5033067;28;20021;-48
2022/04/02 10:11:48;;;;;;;3.20;1.40;;;;;;;;;;5033135;28;20072;-48
2022/04/02 10:14:18;;;;;;;4.03;0.93;;;;;;;;;;5032178;28;20116;-51
2022/04/02 10:16:49;;;;;;;2.10;0.73;;;;;;;;;;5047094;28;20048;-49
2022/04/02 10:19:17;;;;;;;1.45;0.70;;;;;;;;;;5052877;28;20246;-47
2022/04/02 10:21:48;;;;;;;1.35;0.70;;;;;;;;;;5052753;28;20017;-49
2022/04/02 10:24:28;;;;;;;1.08;0.80;;;;;;;;;;5053023;28;20082;-47
2022/04/02 10:26:55;;;;;;;2.45;0.80;;;;;;;;;;5052680;28;20397;-50
2022/04/02 10:29:31;;;;;;;2.13;0.50;;;;;;;;;;5052606;28;20381;-51
2022/04/02 10:32:02;;;;;;;2.20;0.63;;;;;;;;;;5052957;28;20025;-45
2022/04/02 10:34:35;;;;;;;1.53;0.40;;;;;;;;;;5052446;28;20029;-51
2022/04/02 10:37:13;;;;;;;3.97;1.00;;;;;;;;;;5052946;28;20100;-47
2022/04/02 10:39:45;;;;;;;1.25;0.60;;;;;;;;;;5052908;28;20017;-50
2022/04/02 10:42:14;;;;;;;1.13;0.70;;;;;;;;;;5053954;28;20087;-45
2022/04/02 10:44:43;;;;;;;3.15;0.80;;;;;;;;;;5055066;28;20116;-44
2022/04/02 10:47:12;;;;;;;3.20;0.90;;;;;;;;;;5055208;28;20036;-51
2022/04/02 10:49:40;;;;;;;2.17;0.70;;;;;;;;;;5056051;28;20517;-48
2022/04/02 10:52:10;;;;;;;2.45;0.90;;;;;;;;;;5056145;28;20390;-47
2022/04/02 10:54:39;;;;;;;2.63;1.20;;;;;;;;;;5056272;28;20136;-49
2022/04/02 10:57:05;;;;;;;3.75;1.00;;;;;;;;;;5056466;28;20139;-49
2022/04/02 10:59:32;;;;;;;5.50;0.80;;;;;;;;;;5056078;28;20112;-48
2022/04/02 11:02:02;;;;;;;1.98;0.70;;;;;;;;;;5055897;28;20190;-46
2022/04/02 11:04:30;;;;;;;9.48;2.22;;;;;;;;;;5055200;28;20028;-62
2022/04/02 11:06:57;;;;;;;4.15;1.00;;;;;;;;;;5055903;28;20025;-60
2022/04/02 11:09:29;;;;;;;3.50;0.85;;;;;;;;;;5056021;28;20017;-61
2022/04/02 11:12:03;;;;;;;1.90;0.90;;;;;;;;;;5055205;28;20021;-61
2022/04/02 11:14:36;;;;;;;1.33;0.80;;;;;;;;;;5056042;28;20033;-62
2022/04/02 11:17:02;;;;;;;3.28;1.00;;;;;;;;;;5055828;28;20128;-61
2022/04/02 11:22:34;;;;;;;3.15;1.08;;;;;;;;;;5013908;28;20046;-62
2022/04/02 11:25:03;;;;;;;3.55;1.10;;;;;;;;;;5047547;28;20040;-59
2022/04/02 11:27:30;;;;;;;1.77;1.10;;;;;;;;;;5055563;28;20016;-59
2022/04/02 11:30:01;;;;;;;2.33;1.15;;;;;;;;;;5055563;28;20056;-60
2022/04/02 11:32:29;;;;;;;3.88;1.10;;;;;;;;;;5055904;28;20025;-60
2022/04/02 11:34:56;;;;;;;2.72;0.95;;;;;;;;;;5055370;28;20591;-61
2022/04/02 11:37:27;;;;;;;3.35;2.65;;;;;;;;;;5055068;28;20420;-61
2022/04/02 11:39:57;;;;;;;2.72;1.00;;;;;;;;;;5055693;28;20505;-59
2022/04/02 11:42:27;;;;;;;2.65;0.85;;;;;;;;;;5054827;28;20163;-60
2022/04/02 11:44:53;;;;;;;3.80;1.43;;;;;;;;;;5054976;28;20035;-60
2022/04/02 11:47:46;;;;;;;7.63;1.60;;;;;;;;;;5055439;28;20078;-59
2022/04/02 11:50:13;;;;;;;5.13;1.42;;;;;;;;;;5053144;28;20145;-60
2022/04/02 11:52:55;;;;;;;3.45;1.00;;;;;;;;;;5054831;28;20100;-60
2022/04/02 11:55:22;;;;;;;2.30;1.25;;;;;;;;;;5042664;28;20037;-60
2022/04/02 11:57:58;;;;;;;6.97;1.25;;;;;;;;;;5034872;28;20017;-60
2022/04/02 12:00:26;;;;;;;3.92;1.05;;;;;;;;;;5053000;28;20025;-60
2022/04/02 12:02:52;;;;;;;18.35;2.08;;;;;;;;;;5055145;28;20184;-61
2022/04/02 12:05:20;;;;;;;3.97;1.13;;;;;;;;;;5054555;28;20032;-60
2022/04/02 12:07:47;;;;;;;2.72;1.30;;;;;;;;;;5055548;28;20120;-61
2022/04/02 12:10:15;;;;;;;1.98;0.90;;;;;;;;;;5054963;28;20017;-60
2022/04/02 12:12:48;;;;;;;5.95;1.35;;;;;;;;;;5054834;28;20029;-62
2022/04/02 12:15:16;;;;;;;6.25;1.60;;;;;;;;;;5054616;28;20434;-60
2022/04/02 12:17:51;;;;;;;3.85;1.48;;;;;;;;;;5054097;28;20094;-61
2022/04/02 12:20:19;;;;;;;6.68;1.40;;;;;;;;;;5053840;28;20021;-60
2022/04/02 12:22:46;;;;;;;110.95;62.95;;;;;;;;;;5054610;28;20033;-60
2022/04/02 12:25:19;;;;;;;37.50;15.73;;;;;;;;;;5054557;28;20059;-61
2022/04/02 12:27:50;;;;;;;2.90;1.33;;;;;;;;;;5053942;28;20439;-60
2022/04/02 12:30:21;;;;;;;6.82;2.70;;;;;;;;;;5054771;28;20013;-61
2022/04/02 12:32:47;;;;;;;6.78;2.88;;;;;;;;;;5054426;28;20024;-61
2022/04/02 12:35:13;;;;;;;5.10;2.03;;;;;;;;;;5054388;28;20519;-61
2022/04/02 12:37:49;;;;;;;6.63;2.17;;;;;;;;;;5053861;28;20021;-61
2022/04/02 12:40:25;;;;;;;3.95;1.35;;;;;;;;;;5053590;28;20018;-61
2022/04/02 12:42:52;;;;;;;7.25;2.58;;;;;;;;;;5054651;28;20021;-61
2022/04/02 12:45:27;;;;;;;5.50;1.60;;;;;;;;;;5053315;28;20029;-60
2022/04/02 12:48:24;;;;;;;4.78;2.05;;;;;;;;;;5052738;28;20021;-62
2022/04/02 12:51:23;;;;;;;4.63;1.45;;;;;;;;;;5053840;28;20025;-61
2022/04/02 12:54:01;;;;;;;3.28;1.20;;;;;;;;;;5052311;28;20029;-61
2022/04/02 12:56:27;;;;;;;4.85;1.27;;;;;;;;;;5054069;28;20032;-60
2022/04/02 12:58:54;;;;;;;3.17;1.20;;;;;;;;;;5054024;28;20028;-61
2022/04/02 13:01:21;;;;;;;5.65;1.55;;;;;;;;;;5052976;28;20025;-60
2022/04/02 13:04:00;;;;;;;9.43;1.90;;;;;;;;;;5052271;28;20500;-61
2022/04/02 13:06:30;;;;;;;4.88;1.38;;;;;;;;;;5053357;28;20531;-62
2022/04/02 13:09:16;;;;;;;5.45;1.90;;;;;;;;;;5053715;28;20116;-61
2022/04/02 13:11:58;;;;;;;2.78;1.33;;;;;;;;;;5053557;28;20024;-62
2022/04/02 13:14:38;;;;;;;5.38;1.30;;;;;;;;;;5052976;28;20033;-62
2022/04/02 13:17:08;;;;;;;7.85;1.60;;;;;;;;;;5053861;28;20102;-61
2022/04/02 13:22:40;;;;;;;2.40;1.17;;;;;;;;;;5050925;28;20038;-62
2022/04/02 13:25:10;;;;;;;5.40;2.33;;;;;;;;;;5053361;28;20466;-61
2022/04/02 13:27:51;;;;;;;3.97;1.30;;;;;;;;;;5053414;28;20055;-61
2022/04/02 13:30:18;;;;;;;6.28;1.98;;;;;;;;;;5053123;28;20032;-61
2022/04/02 13:33:11;;;;;;;3.88;1.73;;;;;;;;;;5053633;28;20025;-61
2022/04/02 13:35:51;;;;;;;5.72;1.80;;;;;;;;;;5053011;28;20036;-61
2022/04/02 13:38:30;;;;;;;5.85;1.85;;;;;;;;;;5053204;28;20024;-60
2022/04/02 13:41:01;;;;;;;2.80;1.50;;;;;;;;;;5053394;28;20017;-61
2022/04/02 13:43:28;;;;;;;;;;;;;;;;;;5053656;28;20049;-61
2022/04/02 13:45:56;;;;;;;5.50;2.50;;;;;;;;;;5053430;28;19905;-61
2022/04/02 13:48:24;;;;;;;5.68;1.80;;;;;;;;;;5053456;28;20350;-61
2022/04/02 13:51:10;;;;;;;6.40;1.70;;;;;;;;;;5052456;28;20037;-61
2022/04/02 13:53:38;;;;;;;4.80;1.80;;;;;;;;;;5053558;28;20454;-62
2022/04/02 13:56:08;;;;;;;4.00;1.20;;;;;;;;;;5053675;28;20024;-62
2022/04/02 13:58:38;;;;;;;3.92;1.17;;;;;;;;;;5052680;28;20430;-61
2022/04/02 14:01:09;;;;;;;4.43;1.60;;;;;;;;;;5053454;28;20103;-61
2022/04/02 14:03:37;;;;;;;3.25;1.30;;;;;;;;;;5053119;28;20043;-61
2022/04/02 14:06:06;;;;;;;3.35;1.10;;;;;;;;;;5052537;28;20112;-60
2022/04/02 14:08:36;;;;;;;2.85;0.95;;;;;;;;;;5052875;28;20039;-61
2022/04/02 14:11:22;;;;;;;6.45;1.80;;;;;;;;;;5052671;28;20055;-61
2022/04/02 14:14:14;;;;;;;3.58;1.52;;;;;;;;;;5053029;28;20033;-61
2022/04/02 14:16:40;;;;;;;3.15;1.15;;;;;;;;;;5051111;28;20044;-61
2022/04/02 14:19:08;;;;;;;4.78;1.70;;;;;;;;;;5056162;28;20526;-56
2022/04/02 14:21:35;;;;;;;3.65;1.40;;;;;;;;;;5054240;28;20033;-56
2022/04/02 14:24:05;;;;;;;5.85;1.70;;;;;;;;;;5055726;28;20112;-58
2022/04/02 14:26:50;;;;;;;6.43;1.87;;;;;;;;;;5049979;28;20022;-55
2022/04/02 14:29:25;;;;;;;4.25;1.85;;;;;;;;;;5056810;28;20111;-54
2022/04/02 14:32:10;;;;;;;4.90;1.50;;;;;;;;;;5053741;28;20017;-56
2022/04/02 14:34:56;;;;;;;12.48;5.63;;;;;;;;;;5054535;28;20033;-55
2022/04/02 14:37:35;;;;;;;2.45;1.35;;;;;;;;;;5055532;28;20096;-59
2022/04/02 14:40:01;;;;;;;6.25;2.58;;;;;;;;;;5056026;28;20021;-52
2022/04/02 14:42:46;;;;;;;5.10;2.35;;;;;;;;;;5056202;28;20105;-55
2022/04/02 14:45:30;;;;;;;4.05;1.40;;;;;;;;;;5055708;28;20028;-56
2022/04/02 14:47:57;;;;;;;7.20;2.33;;;;;;;;;;5054217;28;20104;-54
2022/04/02 14:50:38;;;;;;;5.72;1.65;;;;;;;;;;5055668;28;20359;-51
2022/04/02 14:53:10;;;;;;;6.63;1.90;;;;;;;;;;5056229;28;20151;-53
2022/04/02 14:55:42;;;;;;;9.82;2.30;;;;;;;;;;5056290;28;20522;-57
2022/04/02 14:58:27;;;;;;;12.82;2.45;;;;;;;;;;5054927;28;20025;-52
2022/04/02 15:01:04;;;;;;;6.93;1.88;;;;;;;;;;5055384;28;20108;-54
2022/04/02 15:03:33;;;;;;;5.40;1.50;;;;;;;;;;5054971;28;20029;-60
2022/04/02 15:06:20;;;;;;;7.00;1.73;;;;;;;;;;5056063;28;20017;-53
2022/04/02 15:08:49;;;;;;;6.43;2.00;;;;;;;;;;5047897;28;20116;-59